Killdeer, North Dakota
Current Conditions -  °F | °C
As of 12:56 PM on Friday 21 Nov 2014 (Local Time) from KDIK Reporting Station
Clear Clear  
Wind Chill: 34°   Ceiling: Unl
Heat Index: 42°   Visibility: 10mi
Dew Point: 28°   Wind: 18mph
Humidity: 58%   Direction: 260°W
Pressure: 29.68"   Gusts: NA
Location:  47.37°N, 102.75°W
Report Text: KDIK 211956Z AUTO 26016KT 10SM CLR 06/M02 A2968 RMK AO2 SLP071 T00561022
Loading
Personal Weather Stations






























Interactive Weather Map New forecast layout! Learn more

10-Day Weather Forecast

Advertisements
Track Severe Weather on mobile